createdAt,value
2022-08-01T00:01:07.050Z,10.32
2022-08-01T00:07:09.928Z,8.07
2022-08-01T00:13:11.800Z,7.57
2022-08-01T00:19:13.798Z,8.50
2022-08-01T00:25:15.610Z,6.00
2022-08-01T00:31:17.411Z,5.20
2022-08-01T00:37:19.171Z,5.47
2022-08-01T00:43:20.941Z,6.63
2022-08-01T00:49:22.777Z,9.45
2022-08-01T00:55:25.297Z,9.27
2022-08-01T01:01:39.144Z,7.60
2022-08-01T01:08:01.881Z,9.75
2022-08-01T01:14:10.832Z,5.82
2022-08-01T01:20:15.039Z,7.00
2022-08-01T01:27:10.890Z,10.80
2022-08-01T01:33:14.715Z,10.80
2022-08-01T01:39:17.969Z,7.18
2022-08-01T01:45:20.332Z,7.13
2022-08-01T01:51:25.149Z,7.40
2022-08-01T01:57:28.676Z,7.32
2022-08-01T02:03:32.563Z,5.55
2022-08-01T02:09:36.467Z,6.43
2022-08-01T02:15:59.501Z,5.35
2022-08-01T02:22:09.021Z,10.63
2022-08-01T02:28:29.132Z,4.25
2022-08-01T02:34:33.258Z,4.60
2022-08-01T02:40:38.819Z,5.00
2022-08-01T02:46:58.412Z,7.35
2022-08-01T02:53:02.774Z,6.03
2022-08-01T02:59:15.437Z,5.88
2022-08-01T03:05:18.565Z,4.25
2022-08-01T03:11:23.234Z,3.90
2022-08-01T03:17:27.840Z,5.45
2022-08-01T03:23:37.955Z,6.10
2022-08-01T03:29:41.528Z,5.82
2022-08-01T03:35:50.539Z,6.97
2022-08-01T03:41:58.853Z,5.57
2022-08-01T03:48:04.405Z,5.57
2022-08-01T03:54:07.969Z,5.30
2022-08-01T04:00:10.627Z,9.07
2022-08-01T04:06:16.503Z,7.78
2022-08-01T04:12:18.659Z,6.70
2022-08-01T04:18:20.723Z,8.65
2022-08-01T04:24:24.858Z,7.55
2022-08-01T04:30:32.768Z,7.00
2022-08-01T04:42:38.064Z,5.22
2022-08-01T04:48:40.542Z,5.05
2022-08-01T04:54:42.504Z,5.97
2022-08-01T05:00:44.596Z,8.55
2022-08-01T05:06:46.500Z,10.50
2022-08-01T05:12:48.248Z,5.28
2022-08-01T05:18:50.030Z,9.20
2022-08-01T05:24:51.860Z,4.45
2022-08-01T05:30:56.010Z,9.95
2022-08-01T05:36:58.136Z,7.78
2022-08-01T05:42:59.965Z,5.25
2022-08-01T05:49:03.751Z,6.07
2022-08-01T05:55:06.253Z,4.43
2022-08-01T06:01:08.076Z,5.40
2022-08-01T06:07:09.839Z,4.68
2022-08-01T06:13:11.591Z,4.03
2022-08-01T06:19:13.390Z,6.93
2022-08-01T06:25:18.381Z,5.35
2022-08-01T06:31:22.472Z,7.85
2022-08-01T06:37:24.390Z,6.70
2022-08-01T06:43:26.226Z,3.47
2022-08-01T06:49:28.180Z,6.80
2022-08-01T06:55:29.991Z,3.05
2022-08-01T07:01:35.245Z,3.70
2022-08-01T07:07:37.346Z,2.10
2022-08-01T07:13:45.562Z,3.72
2022-08-01T07:19:48.852Z,2.15
2022-08-01T07:25:53.029Z,3.03
2022-08-01T07:31:57.126Z,2.67
2022-08-01T07:37:58.947Z,1.63
2022-08-01T07:44:04.639Z,3.55
2022-08-01T07:50:07.639Z,1.88
2022-08-01T07:56:09.800Z,0.70
2022-08-01T08:02:12.084Z,1.75
2022-08-01T08:08:15.484Z,0.70
2022-08-01T08:14:17.675Z,7.20
2022-08-01T08:20:19.504Z,3.13
2022-08-01T08:26:21.924Z,2.65
2022-08-01T08:32:23.863Z,5.35
2022-08-01T08:38:28.452Z,1.40
2022-08-01T08:44:31.952Z,2.78
2022-08-01T08:50:34.420Z,1.15
2022-08-01T08:56:38.463Z,1.30
2022-08-01T09:02:45.390Z,0.80
2022-08-01T09:08:47.833Z,0.90
2022-08-01T09:14:51.287Z,1.48
2022-08-01T09:21:07.938Z,1.55
2022-08-01T09:27:21.724Z,1.65
2022-08-01T09:33:24.480Z,1.17
2022-08-01T09:39:28.850Z,1.83
2022-08-01T09:45:41.814Z,0.85
2022-08-01T09:51:59.959Z,4.87
2022-08-01T09:58:02.668Z,2.00
2022-08-01T10:04:09.962Z,2.35
2022-08-01T10:10:14.300Z,1.05
2022-08-01T10:16:17.587Z,0.77
2022-08-01T10:22:20.545Z,1.80
2022-08-01T10:28:24.421Z,3.60
2022-08-01T10:34:29.112Z,1.27
2022-08-01T10:40:32.933Z,0.85
2022-08-01T10:46:39.614Z,1.95
2022-08-01T10:52:41.951Z,0.50
2022-08-01T10:58:44.981Z,2.35
2022-08-01T11:04:58.632Z,0.95
2022-08-01T11:11:04.715Z,0.70
2022-08-01T11:17:37.926Z,0.80
2022-08-01T11:23:52.818Z,0.50
2022-08-01T11:30:13.137Z,1.92
2022-08-01T11:36:18.497Z,1.95
2022-08-01T11:42:21.634Z,2.00
2022-08-01T11:48:27.488Z,1.15
2022-08-01T11:54:34.783Z,1.25
2022-08-01T12:00:38.303Z,0.85
2022-08-01T12:06:45.899Z,0.80
2022-08-01T12:12:55.571Z,0.93
2022-08-01T12:18:58.461Z,0.80
2022-08-01T12:25:13.700Z,1.30
2022-08-01T12:31:15.503Z,1.67
2022-08-01T12:37:17.699Z,1.20
2022-08-01T12:43:28.647Z,0.73
2022-08-01T12:49:31.769Z,0.82
2022-08-01T12:55:34.736Z,1.10
2022-08-01T13:01:36.960Z,1.42
2022-08-01T13:07:48.970Z,2.20
2022-08-01T13:13:52.129Z,1.25
2022-08-01T13:19:58.688Z,0.60
2022-08-01T13:26:00.775Z,2.90
2022-08-01T13:32:27.538Z,1.40
2022-08-01T13:38:50.762Z,1.42
2022-08-01T13:44:52.552Z,1.60
2022-08-01T13:51:20.069Z,5.35
2022-08-01T13:57:17.417Z,1.17
2022-08-01T14:03:19.286Z,2.25
2022-08-01T14:09:24.682Z,2.38
2022-08-01T14:15:38.389Z,1.00
2022-08-01T14:21:41.311Z,3.22
2022-08-01T14:27:43.103Z,1.88
2022-08-01T14:33:44.884Z,5.25
2022-08-01T14:39:53.477Z,2.97
2022-08-01T14:45:56.437Z,3.45
2022-08-01T14:51:58.748Z,2.53
2022-08-01T14:58:00.515Z,2.22
2022-08-01T15:04:02.311Z,5.15
2022-08-01T15:10:06.971Z,4.57
2022-08-01T15:16:08.946Z,6.57
2022-08-01T15:22:14.128Z,2.83
2022-08-01T15:28:16.232Z,3.20
2022-08-01T15:34:18.026Z,6.38
2022-08-01T15:40:19.797Z,2.60
2022-08-01T15:46:21.634Z,6.78
2022-08-01T15:52:31.712Z,3.97
2022-08-01T15:58:33.975Z,4.78
2022-08-01T16:04:36.310Z,5.65
2022-08-01T16:10:41.359Z,5.32
2022-08-01T16:16:43.286Z,4.00
2022-08-01T16:22:49.909Z,6.50
2022-08-01T16:28:52.851Z,4.50
2022-08-01T16:34:54.728Z,5.10
2022-08-01T16:40:56.543Z,4.00
2022-08-01T16:47:00.658Z,5.43
2022-08-01T16:53:02.531Z,6.65
2022-08-01T16:59:04.319Z,4.53
2022-08-01T17:05:12.589Z,5.43
2022-08-01T17:11:15.430Z,4.20
2022-08-01T17:17:17.312Z,4.53
2022-08-01T17:23:19.313Z,3.50
2022-08-01T17:29:21.139Z,4.05
2022-08-01T17:35:23.015Z,4.80
2022-08-01T17:41:24.840Z,4.25
2022-08-01T17:47:49.337Z,4.63
2022-08-01T17:53:56.182Z,5.78
2022-08-01T17:59:59.718Z,6.38
2022-08-01T18:06:02.295Z,5.78
2022-08-01T18:12:04.787Z,5.63
2022-08-01T18:18:14.030Z,6.63
2022-08-01T18:24:22.322Z,4.82
2022-08-01T18:30:24.185Z,7.63
2022-08-01T18:36:32.856Z,5.20
2022-08-01T18:42:35.411Z,5.95
2022-08-01T18:48:37.505Z,5.82
2022-08-01T18:54:39.296Z,5.47
2022-08-01T19:00:42.258Z,4.93
2022-08-01T19:06:44.158Z,6.10
2022-08-01T19:12:49.592Z,7.20
2022-08-01T19:18:51.422Z,9.93
2022-08-01T19:24:53.656Z,8.65
2022-08-01T19:30:58.097Z,7.75
2022-08-01T19:36:59.961Z,6.75
2022-08-01T19:43:02.957Z,6.93
2022-08-01T19:49:04.830Z,8.35
2022-08-01T19:55:07.939Z,10.00
2022-08-01T20:01:15.136Z,10.25
2022-08-01T20:07:17.156Z,8.80
2022-08-01T20:13:19.736Z,9.73
2022-08-01T20:19:24.425Z,8.70
2022-08-01T20:25:40.237Z,8.95
2022-08-01T20:31:48.065Z,10.77
2022-08-01T20:38:06.698Z,9.02
2022-08-01T20:44:09.911Z,12.85
2022-08-01T20:50:53.261Z,12.15
2022-08-01T20:56:59.835Z,10.05
2022-08-01T21:03:10.509Z,12.48
2022-08-01T21:09:18.818Z,9.07
2022-08-01T21:15:33.361Z,13.07
2022-08-01T21:21:38.390Z,13.50
2022-08-01T21:27:40.661Z,14.32
2022-08-01T21:34:02.462Z,13.68
2022-08-01T21:40:09.809Z,14.38
2022-08-01T21:46:12.528Z,13.35
2022-08-01T21:52:22.607Z,12.23
2022-08-01T21:59:01.962Z,12.15
2022-08-01T22:05:07.518Z,14.45
2022-08-01T22:11:13.786Z,14.38
2022-08-01T22:17:22.704Z,12.88
2022-08-01T22:23:24.955Z,13.77
2022-08-01T22:29:29.131Z,12.60
2022-08-01T22:35:31.258Z,16.35
2022-08-01T22:42:01.604Z,14.60
2022-08-01T22:48:19.690Z,14.25
2022-08-01T22:54:52.886Z,10.88
2022-08-01T23:00:56.163Z,8.15
2022-08-01T23:07:01.805Z,12.02
2022-08-01T23:13:04.248Z,13.25
2022-08-01T23:19:08.669Z,12.60
2022-08-01T23:32:51.904Z,15.82
2022-08-01T23:46:04.171Z,14.85
